Time;durP1;ratioP1;P1;durP2;ratioP2;P2;SDS_P1;SDS_P2;PMS_P1;PMS_P2;Temp;Humidity;BMP_temperature;BMP_pressure;BME280_temperature;BME280_humidity;BME280_pressure;Samples;Min_cycle;Max_cycle;Signal;HPM_P1;HPM_P2
2020/12/18 00:01:51;;;;;;;5.70;3.13;;;;;;;;;;5110539;28;20217;-57
2020/12/18 00:04:17;;;;;;;6.97;3.50;;;;;;;;;;5075298;28;20745;-58
2020/12/18 00:06:43;;;;;;;4.00;3.53;;;;;;;;;;5096413;28;20262;-57
2020/12/18 00:09:09;;;;;;;6.07;3.33;;;;;;;;;;5093847;28;20318;-58
2020/12/18 00:11:35;;;;;;;4.63;3.23;;;;;;;;;;5073316;28;20188;-57
2020/12/18 00:14:01;;;;;;;4.83;3.07;;;;;;;;;;5072644;28;20186;-57
2020/12/18 00:16:28;;;;;;;6.27;3.20;;;;;;;;;;5097271;28;20215;-60
2020/12/18 00:18:54;;;;;;;5.47;3.20;;;;;;;;;;5091387;28;20199;-57
2020/12/18 00:21:20;;;;;;;5.70;3.00;;;;;;;;;;5102286;28;20206;-58
2020/12/18 00:23:46;;;;;;;6.17;3.50;;;;;;;;;;5109732;28;20178;-57
2020/12/18 00:26:12;;;;;;;4.77;3.67;;;;;;;;;;5117608;28;20653;-57
2020/12/18 00:28:38;;;;;;;7.70;3.20;;;;;;;;;;5090660;28;20268;-58
2020/12/18 00:31:04;;;;;;;5.07;2.87;;;;;;;;;;5103699;28;20225;-57
2020/12/18 00:33:30;;;;;;;4.07;3.33;;;;;;;;;;5072689;28;20191;-57
2020/12/18 00:35:56;;;;;;;3.73;2.77;;;;;;;;;;5075890;28;20672;-57
2020/12/18 00:38:23;;;;;;;4.10;2.90;;;;;;;;;;5104889;28;20175;-57
2020/12/18 00:40:49;;;;;;;5.73;3.60;;;;;;;;;;5099296;28;20547;-58
2020/12/18 00:43:15;;;;;;;6.27;3.00;;;;;;;;;;5090858;28;20172;-57
2020/12/18 00:45:42;;;;;;;3.80;3.20;;;;;;;;;;5097290;28;20267;-58
2020/12/18 00:48:08;;;;;;;7.47;3.03;;;;;;;;;;5090573;28;20246;-58
2020/12/18 00:50:34;;;;;;;4.00;2.57;;;;;;;;;;5091990;28;20189;-57
2020/12/18 00:53:00;;;;;;;4.90;3.07;;;;;;;;;;5091040;28;20327;-58
2020/12/18 00:55:26;;;;;;;6.73;3.00;;;;;;;;;;5098120;28;20191;-57
2020/12/18 00:57:52;;;;;;;4.77;2.80;;;;;;;;;;5093915;28;20238;-57
2020/12/18 01:00:18;;;;;;;4.63;2.97;;;;;;;;;;5105704;28;20215;-58
2020/12/18 01:02:44;;;;;;;4.67;3.00;;;;;;;;;;5103154;28;20204;-57
2020/12/18 01:05:10;;;;;;;6.20;3.03;;;;;;;;;;5109158;28;20223;-57
2020/12/18 01:07:36;;;;;;;4.40;2.67;;;;;;;;;;5111035;28;20173;-57
2020/12/18 01:10:03;;;;;;;4.60;3.00;;;;;;;;;;5094103;28;20164;-57
2020/12/18 01:12:29;;;;;;;6.13;3.30;;;;;;;;;;5079651;28;20549;-58
2020/12/18 01:14:55;;;;;;;4.23;2.50;;;;;;;;;;5095680;27;20180;-57
2020/12/18 01:17:21;;;;;;;3.37;2.70;;;;;;;;;;5097503;27;20237;-57
2020/12/18 01:19:47;;;;;;;3.97;2.63;;;;;;;;;;5104595;28;20212;-57
2020/12/18 01:22:13;;;;;;;2.87;2.53;;;;;;;;;;5093797;28;20233;-57
2020/12/18 01:24:39;;;;;;;4.73;3.00;;;;;;;;;;5111864;28;20205;-58
2020/12/18 01:27:05;;;;;;;6.37;3.13;;;;;;;;;;5086131;28;20200;-57
2020/12/18 01:29:31;;;;;;;4.20;2.77;;;;;;;;;;5106344;28;20597;-58
2020/12/18 01:31:57;;;;;;;3.43;2.50;;;;;;;;;;5098538;28;20238;-57
2020/12/18 01:34:23;;;;;;;5.17;2.73;;;;;;;;;;5077613;28;20271;-57
2020/12/18 01:36:49;;;;;;;3.67;2.47;;;;;;;;;;5075655;28;20210;-60
2020/12/18 01:39:15;;;;;;;3.63;2.77;;;;;;;;;;5075627;28;20209;-60
2020/12/18 01:41:41;;;;;;;4.33;2.83;;;;;;;;;;5099721;28;20172;-57
2020/12/18 01:44:07;;;;;;;4.23;2.90;;;;;;;;;;5093352;28;20176;-57
2020/12/18 01:46:33;;;;;;;6.20;3.27;;;;;;;;;;5101373;27;20245;-57
2020/12/18 01:49:00;;;;;;;4.47;3.13;;;;;;;;;;5105077;28;20194;-58
2020/12/18 01:51:26;;;;;;;4.40;2.70;;;;;;;;;;5107940;28;20179;-57
2020/12/18 01:53:53;;;;;;;8.17;3.20;;;;;;;;;;5098779;28;20225;-57
2020/12/18 01:56:21;;;;;;;6.20;2.73;;;;;;;;;;5095438;28;20188;-60
2020/12/18 01:58:48;;;;;;;5.73;3.27;;;;;;;;;;5093452;28;20254;-57
2020/12/18 02:01:14;;;;;;;3.93;3.10;;;;;;;;;;5096738;28;20544;-57
2020/12/18 02:03:40;;;;;;;4.93;2.67;;;;;;;;;;5093732;28;20630;-57
2020/12/18 02:06:09;;;;;;;3.73;2.87;;;;;;;;;;5102460;28;20246;-57
2020/12/18 02:08:35;;;;;;;4.60;2.73;;;;;;;;;;5096256;28;20174;-57
2020/12/18 02:11:01;;;;;;;4.10;2.90;;;;;;;;;;5103076;28;20190;-57
2020/12/18 02:13:28;;;;;;;5.20;2.93;;;;;;;;;;5096813;28;20179;-57
2020/12/18 02:15:54;;;;;;;5.60;3.07;;;;;;;;;;5102286;28;20203;-57
2020/12/18 02:18:21;;;;;;;4.30;2.87;;;;;;;;;;5093021;28;20176;-57
2020/12/18 02:20:47;;;;;;;4.57;2.83;;;;;;;;;;5080426;28;20269;-57
2020/12/18 02:23:13;;;;;;;5.03;2.67;;;;;;;;;;5093788;28;20175;-57
2020/12/18 02:25:40;;;;;;;6.47;2.90;;;;;;;;;;5096295;28;20586;-60
2020/12/18 02:28:06;;;;;;;5.77;2.73;;;;;;;;;;5074329;28;20642;-57
2020/12/18 02:30:32;;;;;;;3.20;2.47;;;;;;;;;;5092409;28;20227;-57
2020/12/18 02:32:58;;;;;;;2.73;2.43;;;;;;;;;;5074973;28;20186;-58
2020/12/18 02:35:24;;;;;;;3.67;2.30;;;;;;;;;;5092323;28;20194;-58
2020/12/18 02:37:53;;;;;;;5.83;3.10;;;;;;;;;;5090214;28;20187;-58
2020/12/18 02:40:19;;;;;;;4.90;2.50;;;;;;;;;;5099078;28;20199;-57
2020/12/18 02:42:45;;;;;;;5.57;2.80;;;;;;;;;;5092707;28;20176;-57
2020/12/18 02:45:11;;;;;;;3.03;2.70;;;;;;;;;;5085125;27;20181;-58
2020/12/18 02:47:37;;;;;;;7.00;3.07;;;;;;;;;;5092582;28;20184;-57
2020/12/18 02:50:03;;;;;;;5.60;2.70;;;;;;;;;;5092319;28;20187;-59
2020/12/18 02:52:29;;;;;;;6.20;2.50;;;;;;;;;;5108383;28;20577;-58
2020/12/18 02:54:55;;;;;;;3.87;2.93;;;;;;;;;;5090119;28;20180;-57
2020/12/18 02:57:21;;;;;;;4.83;2.50;;;;;;;;;;5097734;28;20198;-57
2020/12/18 02:59:47;;;;;;;3.83;2.57;;;;;;;;;;5097826;28;20254;-57
2020/12/18 03:02:13;;;;;;;3.47;2.20;;;;;;;;;;5079127;28;20272;-57
2020/12/18 03:04:39;;;;;;;3.60;2.63;;;;;;;;;;5073590;28;20219;-57
2020/12/18 03:07:05;;;;;;;3.03;2.47;;;;;;;;;;5091443;28;20171;-58
2020/12/18 03:09:31;;;;;;;4.00;2.80;;;;;;;;;;5092073;28;20576;-57
2020/12/18 03:11:57;;;;;;;2.57;2.33;;;;;;;;;;5103807;28;20182;-57
2020/12/18 03:14:23;;;;;;;4.27;2.50;;;;;;;;;;5097119;28;20193;-56
2020/12/18 03:16:49;;;;;;;4.57;2.50;;;;;;;;;;5096109;28;20184;-57
2020/12/18 03:19:15;;;;;;;4.20;2.83;;;;;;;;;;5091929;28;20218;-57
2020/12/18 03:21:41;;;;;;;4.10;2.63;;;;;;;;;;5091375;28;20179;-57
2020/12/18 03:24:07;;;;;;;5.97;2.70;;;;;;;;;;5091401;28;20180;-58
2020/12/18 03:26:33;;;;;;;5.03;2.63;;;;;;;;;;5075041;28;20530;-57
2020/12/18 03:28:59;;;;;;;4.17;2.40;;;;;;;;;;5091619;28;20188;-57
2020/12/18 03:31:25;;;;;;;3.00;2.30;;;;;;;;;;5091528;28;20203;-58
2020/12/18 03:33:51;;;;;;;2.70;2.10;;;;;;;;;;5091670;28;20183;-57
2020/12/18 03:36:17;;;;;;;5.50;2.20;;;;;;;;;;5103440;28;20175;-57
2020/12/18 03:38:43;;;;;;;4.40;2.50;;;;;;;;;;5094742;28;20188;-57
2020/12/18 03:41:09;;;;;;;8.27;2.80;;;;;;;;;;5091406;28;20172;-58
2020/12/18 03:43:35;;;;;;;5.13;2.43;;;;;;;;;;5091862;28;20176;-58
2020/12/18 03:46:01;;;;;;;4.70;2.13;;;;;;;;;;5109705;27;20175;-57
2020/12/18 03:48:28;;;;;;;6.77;2.57;;;;;;;;;;5084574;28;20184;-57
2020/12/18 03:50:54;;;;;;;2.30;2.03;;;;;;;;;;5099319;28;20311;-58
2020/12/18 03:53:20;;;;;;;4.30;2.20;;;;;;;;;;5100138;28;20186;-57
2020/12/18 03:55:46;;;;;;;4.87;2.40;;;;;;;;;;5103389;28;20179;-58
2020/12/18 03:58:12;;;;;;;3.77;1.97;;;;;;;;;;5091944;28;20180;-57
2020/12/18 04:00:38;;;;;;;4.07;2.47;;;;;;;;;;5092152;28;20217;-57
2020/12/18 04:03:04;;;;;;;4.80;2.30;;;;;;;;;;5110887;28;20625;-57
2020/12/18 04:05:31;;;;;;;4.20;2.57;;;;;;;;;;5111229;28;20218;-59
2020/12/18 04:07:57;;;;;;;3.53;2.10;;;;;;;;;;5097599;28;20196;-57
2020/12/18 04:10:23;;;;;;;3.90;2.23;;;;;;;;;;5090898;28;20588;-57
2020/12/18 04:12:49;;;;;;;3.50;2.47;;;;;;;;;;5080558;28;20174;-57
2020/12/18 04:15:15;;;;;;;3.73;2.40;;;;;;;;;;5122281;28;20624;-57
2020/12/18 04:17:43;;;;;;;4.27;2.30;;;;;;;;;;5092068;28;20187;-59
2020/12/18 04:20:10;;;;;;;4.63;2.40;;;;;;;;;;5090630;28;20196;-58
2020/12/18 04:22:36;;;;;;;3.37;2.40;;;;;;;;;;5090766;28;20256;-58
2020/12/18 04:25:02;;;;;;;4.57;2.37;;;;;;;;;;5091097;28;20183;-57
2020/12/18 04:27:28;;;;;;;2.87;2.23;;;;;;;;;;5091372;28;20179;-57
2020/12/18 04:29:54;;;;;;;3.07;1.93;;;;;;;;;;5095620;28;20656;-57
2020/12/18 04:32:20;;;;;;;5.70;2.53;;;;;;;;;;5098921;28;20622;-58
2020/12/18 04:34:46;;;;;;;3.70;2.37;;;;;;;;;;5112576;28;20191;-58
2020/12/18 04:37:12;;;;;;;5.30;2.17;;;;;;;;;;5075850;28;20267;-57
2020/12/18 04:39:38;;;;;;;4.63;2.23;;;;;;;;;;5094746;28;20282;-57
2020/12/18 04:42:04;;;;;;;3.30;2.40;;;;;;;;;;5094598;28;20694;-58
2020/12/18 04:44:30;;;;;;;3.63;2.07;;;;;;;;;;5106569;27;20189;-58
2020/12/18 04:46:57;;;;;;;3.00;2.43;;;;;;;;;;5094315;28;20176;-60
2020/12/18 04:49:23;;;;;;;3.27;2.33;;;;;;;;;;5095671;28;20259;-57
2020/12/18 04:51:53;;;;;;;5.60;2.40;;;;;;;;;;5079067;28;20207;-57
2020/12/18 04:54:21;;;;;;;4.23;2.43;;;;;;;;;;5096149;28;20191;-57
2020/12/18 04:56:50;;;;;;;3.93;2.20;;;;;;;;;;5094887;28;20195;-57
2020/12/18 04:59:19;;;;;;;4.77;2.50;;;;;;;;;;5094043;28;20220;-59
2020/12/18 05:01:45;;;;;;;6.57;2.90;;;;;;;;;;5075761;28;20176;-57
2020/12/18 05:04:11;;;;;;;2.77;2.47;;;;;;;;;;5079455;28;20619;-58
2020/12/18 05:06:37;;;;;;;3.73;2.13;;;;;;;;;;5105610;28;20176;-57
2020/12/18 05:09:03;;;;;;;4.70;2.70;;;;;;;;;;5103171;28;20666;-57
2020/12/18 05:11:29;;;;;;;3.03;2.60;;;;;;;;;;5094796;28;20222;-57
2020/12/18 05:13:55;;;;;;;2.90;2.07;;;;;;;;;;5084491;27;20174;-57
2020/12/18 05:16:22;;;;;;;5.47;2.77;;;;;;;;;;5113616;27;20527;-58
2020/12/18 05:18:49;;;;;;;4.77;2.67;;;;;;;;;;5095456;28;20182;-57
2020/12/18 05:21:15;;;;;;;3.60;2.07;;;;;;;;;;5096185;28;20168;-57
2020/12/18 05:23:42;;;;;;;5.63;2.57;;;;;;;;;;5108775;28;20184;-57
2020/12/18 05:26:09;;;;;;;3.20;2.07;;;;;;;;;;5110878;28;20175;-57
2020/12/18 05:28:39;;;;;;;3.50;2.20;;;;;;;;;;5096309;28;20657;-57
2020/12/18 05:31:09;;;;;;;5.33;2.50;;;;;;;;;;5102876;28;20209;-57
2020/12/18 05:33:35;;;;;;;5.40;2.20;;;;;;;;;;5099128;28;20656;-57
2020/12/18 05:36:01;;;;;;;4.80;2.20;;;;;;;;;;5093318;28;20180;-57
2020/12/18 05:38:27;;;;;;;3.33;2.80;;;;;;;;;;5093177;28;20180;-57
2020/12/18 05:40:53;;;;;;;5.30;2.70;;;;;;;;;;5090863;28;20207;-57
2020/12/18 05:43:19;;;;;;;5.53;2.83;;;;;;;;;;5097489;28;20497;-57
2020/12/18 05:45:45;;;;;;;4.60;2.17;;;;;;;;;;5079360;28;20187;-57
2020/12/18 05:48:15;;;;;;;4.73;2.60;;;;;;;;;;5094267;28;20183;-57
2020/12/18 05:50:41;;;;;;;3.30;2.20;;;;;;;;;;5110874;28;20195;-58
2020/12/18 05:53:08;;;;;;;5.20;2.20;;;;;;;;;;5093842;28;20199;-57
2020/12/18 05:55:35;;;;;;;3.93;1.97;;;;;;;;;;5093195;28;20187;-57
2020/12/18 05:58:01;;;;;;;4.97;2.27;;;;;;;;;;5092833;28;20543;-57
2020/12/18 06:00:27;;;;;;;4.30;2.80;;;;;;;;;;5091915;28;20199;-57
2020/12/18 06:02:58;;;;;;;4.63;2.17;;;;;;;;;;5085938;28;20188;-57
2020/12/18 06:05:25;;;;;;;3.17;2.33;;;;;;;;;;5073673;28;20773;-57
2020/12/18 06:07:52;;;;;;;2.83;1.90;;;;;;;;;;5091930;28;20357;-57
2020/12/18 06:10:22;;;;;;;4.43;2.20;;;;;;;;;;5091872;28;20178;-57
2020/12/18 06:12:49;;;;;;;4.67;2.00;;;;;;;;;;5103886;28;20228;-57
2020/12/18 06:15:16;;;;;;;4.60;2.10;;;;;;;;;;5121076;27;20179;-57
2020/12/18 06:17:44;;;;;;;5.93;2.50;;;;;;;;;;5111960;28;20295;-57
2020/12/18 06:20:13;;;;;;;5.23;2.37;;;;;;;;;;5112327;28;20574;-57
2020/12/18 06:22:39;;;;;;;7.50;2.30;;;;;;;;;;5101006;28;20183;-57
2020/12/18 06:25:05;;;;;;;7.27;2.40;;;;;;;;;;5073967;28;20194;-58
2020/12/18 06:27:31;;;;;;;4.03;2.30;;;;;;;;;;5102281;28;20183;-57
2020/12/18 06:30:08;;;;;;;5.47;1.90;;;;;;;;;;5092363;28;20230;-57
2020/12/18 06:32:34;;;;;;;4.67;2.43;;;;;;;;;;5100004;28;20171;-57
2020/12/18 06:35:19;;;;;;;7.77;2.17;;;;;;;;;;5110706;28;20175;-59
2020/12/18 06:37:45;;;;;;;4.27;2.17;;;;;;;;;;5109542;28;20215;-57
2020/12/18 06:40:26;;;;;;;3.13;2.07;;;;;;;;;;5109761;28;20672;-58
2020/12/18 06:42:52;;;;;;;3.40;2.00;;;;;;;;;;5102829;28;20167;-57
2020/12/18 06:45:18;;;;;;;2.40;2.07;;;;;;;;;;5090747;28;20176;-57
2020/12/18 06:47:44;;;;;;;2.87;1.80;;;;;;;;;;5097216;28;20253;-57
2020/12/18 06:50:15;;;;;;;3.47;2.20;;;;;;;;;;5099763;28;20183;-57
2020/12/18 06:52:48;;;;;;;5.90;2.33;;;;;;;;;;5101373;28;20661;-57
2020/12/18 06:55:15;;;;;;;5.37;2.20;;;;;;;;;;5103476;28;20641;-57
2020/12/18 06:57:42;;;;;;;4.27;2.20;;;;;;;;;;5099493;28;20171;-58
2020/12/18 07:00:27;;;;;;;4.83;2.27;;;;;;;;;;5090797;28;20560;-57
2020/12/18 07:02:54;;;;;;;4.33;2.00;;;;;;;;;;5101529;28;20430;-57
2020/12/18 07:05:30;;;;;;;5.00;1.80;;;;;;;;;;5104858;28;20705;-57
2020/12/18 07:07:57;;;;;;;3.43;1.97;;;;;;;;;;5110859;28;20175;-57
2020/12/18 07:10:27;;;;;;;3.40;2.63;;;;;;;;;;5110733;28;20179;-57
2020/12/18 07:12:56;;;;;;;3.07;2.00;;;;;;;;;;5108294;28;20664;-57
2020/12/18 07:15:22;;;;;;;2.37;1.80;;;;;;;;;;5088529;28;20187;-57
2020/12/18 07:17:49;;;;;;;1.90;1.63;;;;;;;;;;5103466;28;20600;-57
2020/12/18 07:20:15;;;;;;;2.43;1.80;;;;;;;;;;5096577;28;20195;-57
2020/12/18 07:22:42;;;;;;;3.27;1.53;;;;;;;;;;5106778;28;20232;-58
2020/12/18 07:25:12;;;;;;;2.43;1.93;;;;;;;;;;5106185;28;20183;-58
2020/12/18 07:27:38;;;;;;;5.37;2.13;;;;;;;;;;5104760;27;20175;-57
2020/12/18 07:30:11;;;;;;;5.10;2.00;;;;;;;;;;5099133;28;20184;-57
2020/12/18 07:32:37;;;;;;;2.97;2.00;;;;;;;;;;5102528;28;22045;-57
2020/12/18 07:35:07;;;;;;;4.90;2.43;;;;;;;;;;5111113;27;20194;-57
2020/12/18 07:37:34;;;;;;;4.97;2.27;;;;;;;;;;5109593;28;20196;-58
2020/12/18 07:40:00;;;;;;;4.47;2.10;;;;;;;;;;5106369;28;20195;-57
2020/12/18 07:42:26;;;;;;;4.47;2.10;;;;;;;;;;5083418;28;20263;-57
2020/12/18 07:45:03;;;;;;;4.00;2.20;;;;;;;;;;5104444;28;20673;-57
2020/12/18 07:47:29;;;;;;;2.13;1.80;;;;;;;;;;5089294;28;20659;-57
2020/12/18 07:49:55;;;;;;;3.60;2.37;;;;;;;;;;5086792;28;20261;-57
2020/12/18 07:52:25;;;;;;;6.37;2.53;;;;;;;;;;5110718;28;20641;-57
2020/12/18 07:54:55;;;;;;;3.87;2.17;;;;;;;;;;5102898;27;20183;-57
2020/12/18 07:57:21;;;;;;;3.43;2.17;;;;;;;;;;5104451;28;20540;-57
2020/12/18 07:59:47;;;;;;;5.30;2.03;;;;;;;;;;5104952;28;20218;-57
2020/12/18 08:02:21;;;;;;;5.57;2.03;;;;;;;;;;5107545;28;20175;-57
2020/12/18 08:04:56;;;;;;;3.67;1.70;;;;;;;;;;5105930;28;20215;-57
2020/12/18 08:07:22;;;;;;;4.63;1.93;;;;;;;;;;5109463;28;20250;-57
2020/12/18 08:09:57;;;;;;;2.83;1.97;;;;;;;;;;5093713;28;20184;-58
2020/12/18 08:12:23;;;;;;;3.47;1.80;;;;;;;;;;5098750;28;20420;-57
2020/12/18 08:14:49;;;;;;;2.73;2.03;;;;;;;;;;5105708;28;20179;-57
2020/12/18 08:17:24;;;;;;;3.03;1.80;;;;;;;;;;5101872;28;20179;-57
2020/12/18 08:19:51;;;;;;;2.90;1.93;;;;;;;;;;5118502;28;20198;-57
2020/12/18 08:22:19;;;;;;;4.43;1.80;;;;;;;;;;5092574;28;20535;-57
2020/12/18 08:24:47;;;;;;;3.70;1.97;;;;;;;;;;5092292;28;20175;-57
2020/12/18 08:27:21;;;;;;;2.93;1.80;;;;;;;;;;5096880;28;20175;-57
2020/12/18 08:29:48;;;;;;;2.20;1.83;;;;;;;;;;5109622;28;20158;-57
2020/12/18 08:32:18;;;;;;;3.00;1.70;;;;;;;;;;5100871;28;20180;-58
2020/12/18 08:34:44;;;;;;;4.43;2.93;;;;;;;;;;5089283;28;20203;-57
2020/12/18 08:37:10;;;;;;;2.80;2.17;;;;;;;;;;5089699;28;20210;-57
2020/12/18 08:39:36;;;;;;;4.67;2.27;;;;;;;;;;5089425;28;20231;-57
2020/12/18 08:42:03;;;;;;;2.13;1.83;;;;;;;;;;5101998;28;20171;-57
2020/12/18 08:44:39;;;;;;;5.67;1.83;;;;;;;;;;5089598;28;20187;-57
2020/12/18 08:47:23;;;;;;;3.27;1.90;;;;;;;;;;5104621;28;20172;-57
2020/12/18 08:49:53;;;;;;;4.07;2.07;;;;;;;;;;5117245;28;20630;-58
2020/12/18 08:52:26;;;;;;;5.87;2.73;;;;;;;;;;5098717;28;20606;-58
2020/12/18 08:55:00;;;;;;;3.60;1.87;;;;;;;;;;5072029;28;20657;-59
2020/12/18 08:57:27;;;;;;;3.10;2.60;;;;;;;;;;5090250;28;20179;-58
2020/12/18 09:00:08;;;;;;;2.83;2.30;;;;;;;;;;5090029;28;20200;-57
2020/12/18 09:02:36;;;;;;;4.33;2.13;;;;;;;;;;5092620;28;20180;-57
2020/12/18 09:05:17;;;;;;;4.63;2.70;;;;;;;;;;5088991;28;20628;-56
2020/12/18 09:07:51;;;;;;;2.40;1.90;;;;;;;;;;5088792;28;20206;-57
2020/12/18 09:10:46;;;;;;;3.87;2.60;;;;;;;;;;5090155;28;20180;-56
2020/12/18 09:13:14;;;;;;;3.13;2.30;;;;;;;;;;5091971;28;20554;-57
2020/12/18 09:15:41;;;;;;;3.30;2.50;;;;;;;;;;5082285;28;20278;-56
2020/12/18 09:18:08;;;;;;;7.40;2.70;;;;;;;;;;5098148;27;20175;-56
2020/12/18 09:20:35;;;;;;;6.43;3.00;;;;;;;;;;5111346;27;20228;-57
2020/12/18 09:23:05;;;;;;;4.40;2.73;;;;;;;;;;5092080;28;20247;-57
2020/12/18 09:25:36;;;;;;;7.13;2.87;;;;;;;;;;5073809;28;20191;-57
2020/12/18 09:28:02;;;;;;;3.87;2.73;;;;;;;;;;5098837;28;20168;-57
2020/12/18 09:30:29;;;;;;;7.93;2.80;;;;;;;;;;5105155;28;20237;-57
2020/12/18 09:33:08;;;;;;;6.87;2.60;;;;;;;;;;5111720;28;20693;-57
2020/12/18 09:35:34;;;;;;;3.27;2.47;;;;;;;;;;5074495;28;20536;-59
2020/12/18 09:38:00;;;;;;;4.97;2.77;;;;;;;;;;5105893;28;20657;-57
2020/12/18 09:40:26;;;;;;;6.03;3.03;;;;;;;;;;5093564;28;20221;-57
2020/12/18 09:42:52;;;;;;;5.33;3.03;;;;;;;;;;5094404;28;20179;-60
2020/12/18 09:45:18;;;;;;;4.27;2.63;;;;;;;;;;5113729;27;20229;-57
2020/12/18 09:47:44;;;;;;;4.77;3.00;;;;;;;;;;5094725;28;20176;-59
2020/12/18 09:50:10;;;;;;;3.77;2.80;;;;;;;;;;5109480;28;20233;-57
2020/12/18 09:52:36;;;;;;;7.27;2.93;;;;;;;;;;5098756;28;20229;-57
2020/12/18 09:55:02;;;;;;;4.77;3.00;;;;;;;;;;5111703;28;20692;-58
2020/12/18 09:57:28;;;;;;;5.17;3.03;;;;;;;;;;5111848;28;20175;-61
2020/12/18 09:59:54;;;;;;;5.17;2.70;;;;;;;;;;5106006;28;20200;-63
2020/12/18 10:02:20;;;;;;;5.03;2.37;;;;;;;;;;5103061;28;20163;-61
2020/12/18 10:04:46;;;;;;;6.90;2.73;;;;;;;;;;5108719;28;20374;-61
2020/12/18 10:07:12;;;;;;;4.73;2.40;;;;;;;;;;5091999;28;20651;-62
2020/12/18 10:09:38;;;;;;;6.40;2.97;;;;;;;;;;5092104;28;20175;-61
2020/12/18 10:12:04;;;;;;;4.13;2.90;;;;;;;;;;5097001;28;20272;-63
2020/12/18 10:14:30;;;;;;;3.77;2.97;;;;;;;;;;5118396;27;20211;-61
2020/12/18 10:16:56;;;;;;;4.57;2.60;;;;;;;;;;5102830;28;20215;-61
2020/12/18 10:19:22;;;;;;;3.67;2.70;;;;;;;;;;5087058;28;20310;-63
2020/12/18 10:21:48;;;;;;;5.27;2.90;;;;;;;;;;5101831;28;20254;-61
2020/12/18 10:24:14;;;;;;;5.20;3.47;;;;;;;;;;5096614;28;20179;-62
2020/12/18 10:26:40;;;;;;;6.20;3.07;;;;;;;;;;5102582;27;20174;-62
2020/12/18 10:29:06;;;;;;;6.87;3.60;;;;;;;;;;5111234;28;20171;-62
2020/12/18 10:31:32;;;;;;;4.37;2.87;;;;;;;;;;5110930;28;20739;-62
2020/12/18 10:34:00;;;;;;;4.67;2.97;;;;;;;;;;5092176;28;20175;-61
2020/12/18 10:36:26;;;;;;;8.33;3.50;;;;;;;;;;5110142;28;20167;-61
2020/12/18 10:38:52;;;;;;;3.60;2.83;;;;;;;;;;5110341;28;20325;-61
2020/12/18 10:41:18;;;;;;;3.47;2.90;;;;;;;;;;5088427;28;20578;-61
2020/12/18 10:43:44;;;;;;;4.73;3.33;;;;;;;;;;5092466;28;20175;-61
2020/12/18 10:46:11;;;;;;;3.50;3.00;;;;;;;;;;5091490;28;20677;-62
2020/12/18 10:48:37;;;;;;;3.67;3.23;;;;;;;;;;5111735;28;20504;-61
2020/12/18 10:51:03;;;;;;;3.80;2.90;;;;;;;;;;5091359;28;20331;-62
2020/12/18 10:53:29;;;;;;;4.70;2.73;;;;;;;;;;5110789;28;20190;-62
2020/12/18 10:55:55;;;;;;;3.43;2.90;;;;;;;;;;5110471;28;20626;-62
2020/12/18 10:58:21;;;;;;;6.40;3.10;;;;;;;;;;5076113;28;20191;-61
2020/12/18 11:00:47;;;;;;;5.00;2.70;;;;;;;;;;5091164;28;20289;-61
2020/12/18 11:03:13;;;;;;;5.67;3.30;;;;;;;;;;5089569;28;20183;-63
2020/12/18 11:05:39;;;;;;;4.10;2.63;;;;;;;;;;5092865;28;20686;-62
2020/12/18 11:08:06;;;;;;;5.53;3.27;;;;;;;;;;5093458;28;20180;-62
2020/12/18 11:10:32;;;;;;;6.50;3.20;;;;;;;;;;5100358;28;20179;-62
2020/12/18 11:12:58;;;;;;;3.80;3.07;;;;;;;;;;5097127;28;20187;-61
2020/12/18 11:15:24;;;;;;;4.60;3.20;;;;;;;;;;5090985;28;20198;-62
2020/12/18 11:17:50;;;;;;;5.50;3.20;;;;;;;;;;5098050;28;20534;-62
2020/12/18 11:20:16;;;;;;;5.30;3.00;;;;;;;;;;5107243;28;20277;-62
2020/12/18 11:22:42;;;;;;;3.00;2.70;;;;;;;;;;5100476;28;20180;-61
2020/12/18 11:25:08;;;;;;;3.07;2.60;;;;;;;;;;5125989;27;20261;-61
2020/12/18 11:27:34;;;;;;;3.13;2.60;;;;;;;;;;5100448;28;20202;-62
2020/12/18 11:30:00;;;;;;;5.17;3.20;;;;;;;;;;5093909;28;20183;-62
2020/12/18 11:32:26;;;;;;;4.43;3.30;;;;;;;;;;5097027;28;20188;-64
2020/12/18 11:34:52;;;;;;;5.30;2.90;;;;;;;;;;5113978;27;20214;-62
2020/12/18 11:37:18;;;;;;;6.50;2.93;;;;;;;;;;5103995;28;20190;-61
2020/12/18 11:39:44;;;;;;;3.60;2.60;;;;;;;;;;5099630;28;20199;-62
2020/12/18 11:42:11;;;;;;;4.87;2.27;;;;;;;;;;5092387;28;20253;-62
2020/12/18 11:44:37;;;;;;;4.13;2.13;;;;;;;;;;5091440;28;20170;-61
2020/12/18 11:47:03;;;;;;;5.27;2.77;;;;;;;;;;5109198;28;20198;-64
2020/12/18 11:49:29;;;;;;;3.60;2.50;;;;;;;;;;5101741;28;20183;-62
2020/12/18 11:51:55;;;;;;;3.93;2.73;;;;;;;;;;5096140;28;20207;-62
2020/12/18 11:54:21;;;;;;;4.27;2.63;;;;;;;;;;5100522;27;20187;-62
2020/12/18 11:56:48;;;;;;;4.10;2.67;;;;;;;;;;5100032;28;20232;-62
2020/12/18 11:59:14;;;;;;;5.73;2.67;;;;;;;;;;5092090;28;20179;-62
2020/12/18 12:01:40;;;;;;;6.73;2.20;;;;;;;;;;5087750;28;20525;-61
2020/12/18 12:04:06;;;;;;;3.90;2.67;;;;;;;;;;5110879;28;20298;-63
2020/12/18 12:06:35;;;;;;;3.83;2.30;;;;;;;;;;5110482;28;20638;-62
2020/12/18 12:09:04;;;;;;;3.30;2.70;;;;;;;;;;5101962;28;20233;-63
2020/12/18 12:11:37;;;;;;;4.23;2.50;;;;;;;;;;5110652;28;20171;-61
2020/12/18 12:14:03;;;;;;;2.87;2.13;;;;;;;;;;5092603;28;20175;-61
2020/12/18 12:16:36;;;;;;;3.60;2.23;;;;;;;;;;5085493;28;20183;-61
2020/12/18 12:19:02;;;;;;;2.80;2.23;;;;;;;;;;5100140;28;20187;-62
2020/12/18 12:21:39;;;;;;;5.47;2.70;;;;;;;;;;5102679;28;20183;-62
2020/12/18 12:24:06;;;;;;;2.53;2.23;;;;;;;;;;5098805;28;20183;-62
2020/12/18 12:26:32;;;;;;;2.47;2.10;;;;;;;;;;5108582;28;20937;-64
2020/12/18 12:28:58;;;;;;;3.70;2.37;;;;;;;;;;5103758;28;20232;-62
2020/12/18 12:31:24;;;;;;;5.50;2.27;;;;;;;;;;5086334;28;20199;-62
2020/12/18 12:33:50;;;;;;;2.57;2.03;;;;;;;;;;5092704;28;20184;-61
2020/12/18 12:36:19;;;;;;;3.17;2.30;;;;;;;;;;5094898;28;20182;-62
2020/12/18 12:38:45;;;;;;;4.23;1.87;;;;;;;;;;5106901;28;20175;-61
2020/12/18 12:41:12;;;;;;;2.40;1.80;;;;;;;;;;5107728;28;20213;-63
2020/12/18 12:43:38;;;;;;;4.57;2.47;;;;;;;;;;5100324;28;20183;-62
2020/12/18 12:46:07;;;;;;;6.07;2.00;;;;;;;;;;5105274;28;20576;-61
2020/12/18 12:48:33;;;;;;;3.60;1.60;;;;;;;;;;5114289;28;20182;-62
2020/12/18 12:50:59;;;;;;;2.77;1.93;;;;;;;;;;5088793;28;20229;-61
2020/12/18 12:53:25;;;;;;;2.77;1.60;;;;;;;;;;5113452;28;20179;-62
2020/12/18 12:55:51;;;;;;;2.37;1.90;;;;;;;;;;5085224;27;20187;-62
2020/12/18 12:58:17;;;;;;;3.87;1.93;;;;;;;;;;5100742;28;20194;-62
2020/12/18 13:00:44;;;;;;;2.67;1.93;;;;;;;;;;5108667;28;20200;-62
2020/12/18 13:03:10;;;;;;;4.77;2.50;;;;;;;;;;5107894;27;20182;-62
2020/12/18 13:05:36;;;;;;;2.03;1.87;;;;;;;;;;5104037;28;20717;-63
2020/12/18 13:08:03;;;;;;;3.80;1.73;;;;;;;;;;5110421;28;20175;-63
2020/12/18 13:10:29;;;;;;;5.50;1.93;;;;;;;;;;5094552;28;20533;-62
2020/12/18 13:12:55;;;;;;;2.60;1.67;;;;;;;;;;5100518;28;20248;-62
2020/12/18 13:15:21;;;;;;;3.30;1.93;;;;;;;;;;5089724;28;20225;-61
2020/12/18 13:17:47;;;;;;;3.97;1.57;;;;;;;;;;5087008;28;20252;-63
2020/12/18 13:20:13;;;;;;;2.90;1.70;;;;;;;;;;5088333;28;20642;-62
2020/12/18 13:22:39;;;;;;;2.60;1.43;;;;;;;;;;5096065;28;20229;-62
2020/12/18 13:25:05;;;;;;;1.53;1.43;;;;;;;;;;5102838;28;20172;-62
2020/12/18 13:27:31;;;;;;;2.43;1.83;;;;;;;;;;5095041;28;20175;-62
2020/12/18 13:29:57;;;;;;;2.83;1.90;;;;;;;;;;5112687;28;20180;-62
2020/12/18 13:32:23;;;;;;;2.60;1.70;;;;;;;;;;5092922;28;20175;-62
2020/12/18 13:34:52;;;;;;;1.30;1.17;;;;;;;;;;5096731;28;20183;-62
2020/12/18 13:37:18;;;;;;;4.97;2.07;;;;;;;;;;5112313;28;20186;-64
2020/12/18 13:39:44;;;;;;;1.80;1.43;;;;;;;;;;5092793;28;20204;-63
2020/12/18 13:42:11;;;;;;;2.47;1.73;;;;;;;;;;5112284;28;20654;-63
2020/12/18 13:44:37;;;;;;;4.53;2.23;;;;;;;;;;5109055;28;20179;-63
2020/12/18 13:47:03;;;;;;;4.07;1.60;;;;;;;;;;5095783;27;20204;-63
2020/12/18 13:49:29;;;;;;;2.70;1.70;;;;;;;;;;5090108;28;20186;-62
2020/12/18 13:51:55;;;;;;;2.60;1.80;;;;;;;;;;5109801;28;20186;-62
2020/12/18 13:54:21;;;;;;;2.80;1.70;;;;;;;;;;5112802;28;20179;-62
2020/12/18 13:56:48;;;;;;;1.63;1.40;;;;;;;;;;5099575;28;20180;-63
2020/12/18 13:59:14;;;;;;;2.47;1.53;;;;;;;;;;5105924;28;20214;-62
2020/12/18 14:01:41;;;;;;;8.00;1.50;;;;;;;;;;5110639;28;20271;-63
2020/12/18 14:04:10;;;;;;;2.23;1.60;;;;;;;;;;5106690;27;20625;-63
2020/12/18 14:06:36;;;;;;;2.67;1.20;;;;;;;;;;5079321;28;20173;-63
2020/12/18 14:09:03;;;;;;;1.67;1.57;;;;;;;;;;5081406;28;20187;-62
2020/12/18 14:11:29;;;;;;;2.30;2.03;;;;;;;;;;5090702;28;20180;-62
2020/12/18 14:13:55;;;;;;;1.87;1.73;;;;;;;;;;5077039;28;20192;-62
2020/12/18 14:16:21;;;;;;;3.40;1.53;;;;;;;;;;5082655;28;20184;-62
2020/12/18 14:18:47;;;;;;;1.50;1.40;;;;;;;;;;5072513;28;20188;-62
2020/12/18 14:21:13;;;;;;;2.93;1.40;;;;;;;;;;5053605;28;20231;-62
2020/12/18 14:23:39;;;;;;;2.50;1.50;;;;;;;;;;5053591;28;20258;-62
2020/12/18 14:26:05;;;;;;;1.40;1.30;;;;;;;;;;5071430;28;20267;-61
2020/12/18 14:28:31;;;;;;;3.10;1.67;;;;;;;;;;5074586;28;20176;-62
2020/12/18 14:30:57;;;;;;;4.67;1.43;;;;;;;;;;5094474;28;20202;-62
2020/12/18 14:33:23;;;;;;;3.87;1.40;;;;;;;;;;5087218;28;20184;-63
2020/12/18 14:35:49;;;;;;;2.60;2.03;;;;;;;;;;5063889;28;20187;-62
2020/12/18 14:38:15;;;;;;;4.70;1.30;;;;;;;;;;5073632;28;20195;-62
2020/12/18 14:40:41;;;;;;;2.63;1.80;;;;;;;;;;5078789;28;20200;-65
2020/12/18 14:43:07;;;;;;;1.70;1.40;;;;;;;;;;5080130;28;20188;-62